createdAt,value
2019-05-16T00:03:57.986Z,3.52
2019-05-16T00:09:21.467Z,3.40
2019-05-16T00:14:45.992Z,3.62
2019-05-16T00:20:12.588Z,3.65
2019-05-16T00:25:38.607Z,3.65
2019-05-16T00:31:03.520Z,3.85
2019-05-16T00:36:27.799Z,3.85
2019-05-16T00:41:50.114Z,3.37
2019-05-16T00:47:13.267Z,3.75
2019-05-16T00:52:36.254Z,4.12
2019-05-16T00:58:00.985Z,4.60
2019-05-16T01:03:24.940Z,3.87
2019-05-16T01:08:49.493Z,4.50
2019-05-16T01:14:13.296Z,3.95
2019-05-16T01:19:38.022Z,3.90
2019-05-16T01:25:03.078Z,4.20
2019-05-16T01:30:28.964Z,3.62
2019-05-16T01:35:51.172Z,3.80
2019-05-16T01:41:13.791Z,3.27
2019-05-16T01:46:38.861Z,3.75
2019-05-16T01:52:00.741Z,4.12
2019-05-16T01:57:23.911Z,3.67
2019-05-16T02:02:48.804Z,3.75
2019-05-16T02:08:12.639Z,3.55
2019-05-16T02:13:34.816Z,3.98
2019-05-16T02:18:58.856Z,4.12
2019-05-16T02:24:21.954Z,4.30
2019-05-16T02:29:44.252Z,4.58
2019-05-16T02:35:11.823Z,4.03
2019-05-16T02:40:36.725Z,3.60
2019-05-16T02:46:01.622Z,3.80
2019-05-16T02:51:24.922Z,3.85
2019-05-16T02:56:50.628Z,3.90
2019-05-16T03:02:14.274Z,3.98
2019-05-16T03:07:43.449Z,3.67
2019-05-16T03:13:04.104Z,3.67
2019-05-16T03:18:30.962Z,4.00
2019-05-16T03:23:54.745Z,3.08
2019-05-16T03:29:21.751Z,3.20
2019-05-16T03:34:45.097Z,3.02
2019-05-16T03:40:11.063Z,4.30
2019-05-16T03:45:35.142Z,2.75
2019-05-16T03:51:00.794Z,3.40
2019-05-16T03:56:26.109Z,4.22
2019-05-16T04:01:51.176Z,3.50
2019-05-16T04:07:15.256Z,3.33
2019-05-16T04:12:42.062Z,4.33
2019-05-16T04:18:05.895Z,3.10
2019-05-16T04:23:31.611Z,3.35
2019-05-16T04:28:56.240Z,2.37
2019-05-16T04:34:21.269Z,3.70
2019-05-16T04:39:45.979Z,3.20
2019-05-16T04:45:11.826Z,3.62
2019-05-16T04:50:36.048Z,2.95
2019-05-16T04:56:01.707Z,3.02
2019-05-16T05:01:23.751Z,3.25
2019-05-16T05:06:45.952Z,3.42
2019-05-16T05:12:11.375Z,4.30
2019-05-16T05:17:35.304Z,3.22
2019-05-16T05:23:00.339Z,3.77
2019-05-16T05:28:23.985Z,2.90
2019-05-16T05:33:46.981Z,2.80
2019-05-16T05:39:14.832Z,2.85
2019-05-16T05:44:33.499Z,2.42
2019-05-16T05:49:56.413Z,2.65
2019-05-16T05:55:19.977Z,2.15
2019-05-16T06:00:42.740Z,2.60
2019-05-16T06:06:04.915Z,2.92
2019-05-16T06:11:27.182Z,2.42
2019-05-16T06:16:50.833Z,2.22
2019-05-16T06:22:13.469Z,2.37
2019-05-16T06:27:35.678Z,2.80
2019-05-16T06:32:59.680Z,2.80
2019-05-16T06:38:22.106Z,2.45
2019-05-16T06:43:44.374Z,2.42
2019-05-16T06:49:06.502Z,2.50
2019-05-16T06:54:29.906Z,2.25
2019-05-16T06:59:52.301Z,2.62
2019-05-16T07:05:14.964Z,2.22
2019-05-16T07:10:39.810Z,2.00
2019-05-16T07:16:01.716Z,2.20
2019-05-16T07:21:26.696Z,2.02
2019-05-16T07:26:50.059Z,1.92
2019-05-16T07:32:13.042Z,1.90
2019-05-16T07:37:35.207Z,1.70
2019-05-16T07:48:13.517Z,1.40
2019-05-16T07:53:35.750Z,1.50
2019-05-16T07:58:58.099Z,1.65
2019-05-16T08:04:22.486Z,1.87
2019-05-16T08:09:46.684Z,1.55
2019-05-16T08:15:10.148Z,2.05
2019-05-16T08:20:34.579Z,2.17
2019-05-16T08:26:02.712Z,1.85
2019-05-16T08:31:25.109Z,1.50
2019-05-16T08:36:47.393Z,1.75
2019-05-16T08:42:13.111Z,1.65
2019-05-16T08:47:33.645Z,1.98
2019-05-16T08:52:56.315Z,2.12
2019-05-16T08:58:22.180Z,2.40
2019-05-16T09:03:42.859Z,2.20
2019-05-16T09:09:22.898Z,2.55
2019-05-16T09:14:35.192Z,2.10
2019-05-16T09:19:52.940Z,2.35
2019-05-16T09:25:18.146Z,2.60
2019-05-16T09:30:39.784Z,2.33
2019-05-16T09:36:02.046Z,2.37
2019-05-16T09:41:26.585Z,2.33
2019-05-16T09:46:48.062Z,2.35
2019-05-16T09:52:10.469Z,2.22
2019-05-16T09:57:32.641Z,2.25
2019-05-16T10:02:54.951Z,2.87
2019-05-16T10:08:18.791Z,2.60
2019-05-16T10:13:40.985Z,2.83
2019-05-16T10:19:03.813Z,2.85
2019-05-16T10:24:26.893Z,2.85
2019-05-16T10:29:49.730Z,2.95
2019-05-16T10:35:12.506Z,3.35
2019-05-16T10:40:37.013Z,3.37
2019-05-16T10:46:00.531Z,3.05
2019-05-16T10:51:23.967Z,3.33
2019-05-16T10:56:46.902Z,3.30
2019-05-16T11:02:09.259Z,3.75
2019-05-16T11:07:31.621Z,3.72
2019-05-16T11:12:55.721Z,3.70
2019-05-16T11:18:17.768Z,3.83
2019-05-16T11:23:39.957Z,3.77
2019-05-16T11:29:02.174Z,3.75
2019-05-16T11:34:26.500Z,3.75
2019-05-16T11:39:48.238Z,3.87
2019-05-16T11:45:12.158Z,4.00
2019-05-16T11:50:37.284Z,4.20
2019-05-16T11:56:01.804Z,4.47
2019-05-16T12:01:27.271Z,4.87
2019-05-16T12:06:48.535Z,4.53
2019-05-16T12:12:10.742Z,4.17
2019-05-16T12:17:32.940Z,4.30
2019-05-16T12:22:55.244Z,3.50
2019-05-16T12:28:17.485Z,3.10
2019-05-16T12:33:39.639Z,2.72
2019-05-16T12:39:01.937Z,2.10
2019-05-16T12:44:24.146Z,1.70
2019-05-16T12:49:47.422Z,1.80
2019-05-16T12:55:11.190Z,1.50
2019-05-16T13:00:33.998Z,1.42
2019-05-16T13:05:57.106Z,1.57
2019-05-16T13:11:19.830Z,1.35
2019-05-16T13:16:42.051Z,1.50
2019-05-16T13:22:04.235Z,1.42
2019-05-16T13:27:27.415Z,1.55
2019-05-16T13:32:49.756Z,1.45
2019-05-16T13:38:12.046Z,1.50
2019-05-16T13:43:34.268Z,1.85
2019-05-16T13:48:56.459Z,1.70
2019-05-16T13:54:18.696Z,1.72
2019-05-16T13:59:41.000Z,2.00
2019-05-16T14:05:02.905Z,2.37
2019-05-16T14:10:29.827Z,2.20
2019-05-16T14:15:52.607Z,1.98
2019-05-16T14:21:17.909Z,2.30
2019-05-16T14:26:38.761Z,2.83
2019-05-16T14:32:00.957Z,2.45
2019-05-16T14:37:23.665Z,2.50
2019-05-16T14:42:47.878Z,2.35
2019-05-16T14:48:10.067Z,2.55
2019-05-16T14:53:32.173Z,2.25
2019-05-16T14:58:57.437Z,2.27
2019-05-16T15:04:18.346Z,2.63
2019-05-16T15:09:40.514Z,2.75
2019-05-16T15:15:17.141Z,2.80
2019-05-16T15:20:28.130Z,3.12
2019-05-16T15:25:50.462Z,3.25
2019-05-16T15:31:12.635Z,3.40
2019-05-16T15:36:37.133Z,3.00
2019-05-16T15:41:58.839Z,2.67
2019-05-16T15:47:21.170Z,3.15
2019-05-16T15:52:44.690Z,3.17
2019-05-16T15:58:10.166Z,3.00
2019-05-16T16:03:31.301Z,4.65
2019-05-16T16:08:53.474Z,3.55
2019-05-16T16:14:17.162Z,3.20
2019-05-16T16:19:39.683Z,3.80
2019-05-16T16:25:01.599Z,3.85
2019-05-16T16:30:27.716Z,3.50
2019-05-16T16:35:50.141Z,3.83
2019-05-16T16:41:12.242Z,4.50
2019-05-16T16:46:34.590Z,5.25
2019-05-16T16:51:57.399Z,4.80
2019-05-16T16:57:20.321Z,5.22
2019-05-16T17:02:58.461Z,4.97
2019-05-16T17:08:08.070Z,7.70
2019-05-16T17:13:31.813Z,9.78
2019-05-16T17:18:54.026Z,11.08
2019-05-16T17:24:16.821Z,12.28
2019-05-16T17:29:41.239Z,12.65
2019-05-16T17:35:06.790Z,14.07
2019-05-16T17:40:30.973Z,15.03
2019-05-16T17:45:54.457Z,14.87
2019-05-16T17:51:18.870Z,17.32
2019-05-16T17:56:44.026Z,16.37
2019-05-16T18:02:06.851Z,17.77
2019-05-16T18:07:30.272Z,16.73
2019-05-16T18:12:56.819Z,16.32
2019-05-16T18:18:21.512Z,16.75
2019-05-16T18:23:47.205Z,17.95
2019-05-16T18:29:11.264Z,18.27
2019-05-16T18:34:37.687Z,17.48
2019-05-16T18:40:02.532Z,18.42
2019-05-16T18:45:27.076Z,20.60
2019-05-16T18:50:50.326Z,21.42
2019-05-16T18:56:16.778Z,22.27
2019-05-16T19:01:40.029Z,21.52
2019-05-16T19:11:17.548Z,19.87
2019-05-16T19:16:41.801Z,21.17
2019-05-16T19:22:06.538Z,20.65
2019-05-16T19:27:29.623Z,18.10
2019-05-16T19:32:53.801Z,18.02
2019-05-16T19:38:17.309Z,16.90
2019-05-16T19:43:39.854Z,15.72
2019-05-16T19:49:03.957Z,16.37
2019-05-16T19:54:27.177Z,17.92
2019-05-16T19:59:50.700Z,19.40
2019-05-16T20:05:13.246Z,17.15
2019-05-16T20:10:36.636Z,17.77
2019-05-16T20:16:00.008Z,16.48
2019-05-16T20:21:23.655Z,16.97
2019-05-16T20:26:46.588Z,18.32
2019-05-16T20:32:11.459Z,19.35
2019-05-16T20:37:33.337Z,17.55
2019-05-16T20:42:59.452Z,15.85
2019-05-16T20:48:21.504Z,16.65
2019-05-16T20:53:49.558Z,16.20
2019-05-16T20:59:12.038Z,21.27
2019-05-16T21:04:37.249Z,20.52
2019-05-16T21:09:59.022Z,16.25
2019-05-16T21:15:26.226Z,15.40
2019-05-16T21:20:47.623Z,16.80
2019-05-16T21:26:10.880Z,16.93
2019-05-16T21:31:36.874Z,14.80
2019-05-16T21:37:11.320Z,14.07
2019-05-16T21:42:27.138Z,14.53
2019-05-16T21:47:51.087Z,12.95
2019-05-16T21:53:14.416Z,13.78
2019-05-16T21:58:37.016Z,15.40
2019-05-16T22:04:03.084Z,15.05
2019-05-16T22:09:26.975Z,16.42
2019-05-16T22:14:57.401Z,15.45
2019-05-16T22:20:20.921Z,14.83
2019-05-16T22:25:48.727Z,12.90
2019-05-16T22:31:12.511Z,14.23
2019-05-16T22:36:37.279Z,15.60
2019-05-16T22:42:01.017Z,16.12
2019-05-16T22:47:26.754Z,13.40
2019-05-16T22:52:50.137Z,11.78
2019-05-16T22:58:16.376Z,13.22
2019-05-16T23:03:40.064Z,12.47
2019-05-16T23:09:03.809Z,13.72
2019-05-16T23:14:28.087Z,15.98
2019-05-16T23:19:52.051Z,13.68
2019-05-16T23:25:17.182Z,13.85
2019-05-16T23:30:41.447Z,14.03
2019-05-16T23:36:07.069Z,14.30
2019-05-16T23:41:31.118Z,17.07
2019-05-16T23:46:56.673Z,15.83
2019-05-16T23:52:19.991Z,13.95
2019-05-16T23:57:46.622Z,13.75
